Time;durP1;ratioP1;P1;durP2;ratioP2;P2;SDS_P1;SDS_P2;PMS_P1;PMS_P2;Temp;Humidity;BMP_temperature;BMP_pressure;BME280_temperature;BME280_humidity;BME280_pressure;Samples;Min_cycle;Max_cycle;Signal;HPM_P1;HPM_P2
2023/05/25 00:02:55;;;;;;;24.33;13.98;;;;;;;;;;10351936;28;20071;-88
2023/05/25 00:07:56;;;;;;;25.00;15.13;;;;;;;;;;10356149;28;20117;-87
2023/05/25 00:13:00;;;;;;;26.50;15.73;;;;;;;;;;10361303;28;20044;-89
2023/05/25 00:18:01;;;;;;;22.02;13.50;;;;;;;;;;10356585;28;20413;-88
2023/05/25 00:23:04;;;;;;;20.88;12.95;;;;;;;;;;10354643;28;20040;-88
2023/05/25 00:28:05;;;;;;;20.60;13.50;;;;;;;;;;10359516;28;20390;-88
2023/05/25 00:33:09;;;;;;;23.30;14.20;;;;;;;;;;10354135;28;20054;-89
2023/05/25 00:38:13;;;;;;;21.55;13.20;;;;;;;;;;10353829;28;20049;-88
2023/05/25 00:43:14;;;;;;;22.20;14.00;;;;;;;;;;10364859;28;20042;-89
2023/05/25 00:48:16;;;;;;;21.63;13.98;;;;;;;;;;10361823;28;20041;-90
2023/05/25 00:53:19;;;;;;;22.35;13.27;;;;;;;;;;10371010;28;20077;-88
2023/05/25 00:58:21;;;;;;;22.48;14.32;;;;;;;;;;10352683;28;20046;-87
2023/05/25 01:03:26;;;;;;;24.33;14.20;;;;;;;;;;10363340;28;20045;-90
2023/05/25 01:08:27;;;;;;;20.30;12.43;;;;;;;;;;10362391;28;20087;-88
2023/05/25 01:13:31;;;;;;;27.85;15.40;;;;;;;;;;10429589;28;20559;-89
2023/05/25 01:18:32;;;;;;;23.73;14.93;;;;;;;;;;10363754;28;20048;-89
2023/05/25 01:23:36;;;;;;;29.55;16.77;;;;;;;;;;10364465;28;20148;-89
2023/05/25 01:28:45;;;;;;;28.92;15.02;;;;;;;;;;10359534;28;20040;-88
2023/05/25 01:33:46;;;;;;;25.55;15.18;;;;;;;;;;10364244;28;20038;-91
2023/05/25 01:38:48;;;;;;;26.05;15.30;;;;;;;;;;10359460;28;20033;-89
2023/05/25 01:43:49;;;;;;;26.85;15.85;;;;;;;;;;10360277;28;20033;-89
2023/05/25 01:49:03;;;;;;;24.50;15.07;;;;;;;;;;10373073;28;20057;-88
2023/05/25 01:54:23;;;;;;;23.08;14.80;;;;;;;;;;10368289;28;20049;-87
2023/05/25 01:59:25;;;;;;;25.80;15.25;;;;;;;;;;10364027;28;20528;-90
2023/05/25 02:04:26;;;;;;;23.15;13.50;;;;;;;;;;10366367;28;20034;-87
2023/05/25 02:09:27;;;;;;;22.77;14.40;;;;;;;;;;10358250;28;20038;-88
2023/05/25 02:14:28;;;;;;;23.55;14.65;;;;;;;;;;10359690;28;20495;-86
2023/05/25 02:19:29;;;;;;;24.25;14.40;;;;;;;;;;10359848;28;20038;-87
2023/05/25 02:24:33;;;;;;;22.95;13.98;;;;;;;;;;10359396;28;20045;-88
2023/05/25 02:29:37;;;;;;;24.95;15.40;;;;;;;;;;10357505;28;20154;-89
2023/05/25 02:34:37;;;;;;;22.38;14.25;;;;;;;;;;10368032;28;20053;-87
2023/05/25 02:39:39;;;;;;;23.15;14.20;;;;;;;;;;10359573;28;20033;-85
2023/05/25 02:44:47;;;;;;;22.73;13.43;;;;;;;;;;10357853;28;20037;-87
2023/05/25 02:49:48;;;;;;;23.38;14.32;;;;;;;;;;10368631;28;20032;-88
2023/05/25 02:54:53;;;;;;;28.42;14.68;;;;;;;;;;10362898;28;20679;-86
2023/05/25 02:59:54;;;;;;;25.00;14.18;;;;;;;;;;10358080;28;20051;-86
2023/05/25 03:04:55;;;;;;;24.27;14.50;;;;;;;;;;10347547;28;20037;-87
2023/05/25 03:09:58;;;;;;;21.63;14.13;;;;;;;;;;10358993;28;20384;-86
2023/05/25 03:15:01;;;;;;;18.85;12.20;;;;;;;;;;10358195;28;20046;-86
2023/05/25 03:20:06;;;;;;;20.02;12.75;;;;;;;;;;10365006;28;20576;-86
2023/05/25 03:25:12;;;;;;;23.30;13.10;;;;;;;;;;10356169;28;20026;-88
2023/05/25 03:30:15;;;;;;;20.25;12.25;;;;;;;;;;10372012;28;20054;-89
2023/05/25 03:35:16;;;;;;;19.80;12.55;;;;;;;;;;10370905;28;20053;-89
2023/05/25 03:40:17;;;;;;;20.27;12.60;;;;;;;;;;10358995;28;20111;-87
2023/05/25 03:45:20;;;;;;;21.17;13.82;;;;;;;;;;10356970;28;20791;-89
2023/05/25 03:50:25;;;;;;;23.17;14.75;;;;;;;;;;10357878;28;20470;-87
2023/05/25 03:55:27;;;;;;;22.48;13.13;;;;;;;;;;10355844;28;20054;-88
2023/05/25 04:00:28;;;;;;;23.02;14.25;;;;;;;;;;10355517;28;20022;-86
2023/05/25 04:05:28;;;;;;;24.50;14.07;;;;;;;;;;10360862;28;20092;-90
2023/05/25 04:10:30;;;;;;;24.25;14.93;;;;;;;;;;10351245;28;20044;-90
2023/05/25 04:15:33;;;;;;;23.75;15.52;;;;;;;;;;10342110;28;20076;-88
2023/05/25 04:20:34;;;;;;;26.38;14.50;;;;;;;;;;10370467;28;20034;-85
2023/05/25 04:25:44;;;;;;;26.00;15.15;;;;;;;;;;10359624;28;20044;-86
2023/05/25 04:30:46;;;;;;;23.67;14.00;;;;;;;;;;10354465;28;20065;-86
2023/05/25 04:35:49;;;;;;;23.77;13.93;;;;;;;;;;10368381;28;20048;-91
2023/05/25 04:40:53;;;;;;;26.25;14.93;;;;;;;;;;10346045;28;20039;-91
2023/05/25 04:45:58;;;;;;;23.77;15.27;;;;;;;;;;10353148;28;20026;-91
2023/05/25 04:51:03;;;;;;;25.88;15.40;;;;;;;;;;10353542;28;20660;-89
2023/05/25 04:56:04;;;;;;;22.38;13.68;;;;;;;;;;10353988;28;20044;-89
2023/05/25 05:01:05;;;;;;;25.85;15.15;;;;;;;;;;10353347;28;20033;-90
2023/05/25 05:06:06;;;;;;;24.40;14.90;;;;;;;;;;10353454;28;20111;-89
2023/05/25 05:11:09;;;;;;;25.27;12.85;;;;;;;;;;10353104;28;20033;-90
2023/05/25 05:16:10;;;;;;;23.13;12.98;;;;;;;;;;10353043;28;20081;-88
2023/05/25 05:21:11;;;;;;;19.48;12.38;;;;;;;;;;10352547;28;20045;-90
2023/05/25 05:26:14;;;;;;;22.27;13.23;;;;;;;;;;10353177;28;20042;-89
2023/05/25 05:31:16;;;;;;;26.00;14.32;;;;;;;;;;10352814;28;20064;-89
2023/05/25 05:36:21;;;;;;;19.40;12.70;;;;;;;;;;10352077;28;20579;-89
2023/05/25 05:41:22;;;;;;;19.10;12.32;;;;;;;;;;10359609;28;20025;-88
2023/05/25 05:46:26;;;;;;;21.20;13.38;;;;;;;;;;10359728;28;20126;-89
2023/05/25 05:51:27;;;;;;;20.35;12.23;;;;;;;;;;10359344;28;20039;-90
2023/05/25 05:56:27;;;;;;;18.00;11.02;;;;;;;;;;10360578;28;20037;-90
2023/05/25 06:01:28;;;;;;;20.27;12.77;;;;;;;;;;10427941;28;20396;-88
2023/05/25 06:06:31;;;;;;;20.60;13.20;;;;;;;;;;10358598;28;20486;-88
2023/05/25 06:11:38;;;;;;;25.23;15.27;;;;;;;;;;10359614;28;20029;-89
2023/05/25 06:16:42;;;;;;;27.40;16.73;;;;;;;;;;10358404;28;20493;-89
2023/05/25 06:21:44;;;;;;;24.45;15.38;;;;;;;;;;10358125;28;20137;-88
2023/05/25 06:26:44;;;;;;;28.95;16.00;;;;;;;;;;10358217;28;20030;-89
2023/05/25 06:31:48;;;;;;;25.67;14.48;;;;;;;;;;10357589;28;20050;-88
2023/05/25 06:36:49;;;;;;;28.33;17.40;;;;;;;;;;10357944;28;20033;-88
2023/05/25 06:41:50;;;;;;;29.60;17.40;;;;;;;;;;10357848;28;20056;-89
2023/05/25 06:46:53;;;;;;;28.77;15.13;;;;;;;;;;10425922;28;20022;-89
2023/05/25 06:51:54;;;;;;;23.00;14.52;;;;;;;;;;10426393;28;20025;-88
2023/05/25 06:56:55;;;;;;;21.65;13.15;;;;;;;;;;10357108;28;20398;-88
2023/05/25 07:01:57;;;;;;;25.63;14.55;;;;;;;;;;10356837;28;20026;-89
2023/05/25 07:06:58;;;;;;;20.80;13.23;;;;;;;;;;10359074;28;20045;-88
2023/05/25 07:12:00;;;;;;;20.88;13.07;;;;;;;;;;10356702;28;20022;-89
2023/05/25 07:17:00;;;;;;;25.80;15.23;;;;;;;;;;10356853;28;20511;-89
2023/05/25 07:22:04;;;;;;;26.23;14.65;;;;;;;;;;10356097;28;20033;-89
2023/05/25 07:27:08;;;;;;;25.33;14.23;;;;;;;;;;10356619;28;20034;-89
2023/05/25 07:32:09;;;;;;;20.17;12.43;;;;;;;;;;10355800;28;20057;-89
2023/05/25 07:37:10;;;;;;;20.35;12.95;;;;;;;;;;10355699;28;20048;-89
2023/05/25 07:42:19;;;;;;;21.05;11.50;;;;;;;;;;10355816;28;20057;-89
2023/05/25 07:47:20;;;;;;;20.90;12.40;;;;;;;;;;10355511;28;20049;-89
2023/05/25 07:52:23;;;;;;;24.00;12.68;;;;;;;;;;10355627;28;20131;-88
2023/05/25 07:57:26;;;;;;;24.00;13.85;;;;;;;;;;10355602;28;20421;-87
2023/05/25 08:02:27;;;;;;;23.65;13.55;;;;;;;;;;10355070;28;20083;-89
2023/05/25 08:07:28;;;;;;;25.13;15.10;;;;;;;;;;10356705;28;20083;-89
2023/05/25 08:12:38;;;;;;;27.95;17.73;;;;;;;;;;10354804;28;20527;-89
2023/05/25 08:17:41;;;;;;;27.63;14.55;;;;;;;;;;10354873;28;20037;-89
2023/05/25 08:22:42;;;;;;;20.55;13.20;;;;;;;;;;10355448;28;20393;-88
2023/05/25 08:27:45;;;;;;;23.42;13.38;;;;;;;;;;10341460;28;20027;-89
2023/05/25 08:32:51;;;;;;;23.38;14.27;;;;;;;;;;10354087;28;20469;-89
2023/05/25 08:37:52;;;;;;;21.48;13.55;;;;;;;;;;10354875;28;20491;-89
2023/05/25 08:42:59;;;;;;;31.85;18.95;;;;;;;;;;10354300;28;20025;-89
2023/05/25 08:48:03;;;;;;;31.70;21.42;;;;;;;;;;10355016;28;20405;-88
2023/05/25 08:53:05;;;;;;;30.27;21.13;;;;;;;;;;10354341;28;20764;-90
2023/05/25 08:58:15;;;;;;;32.63;21.80;;;;;;;;;;10355838;28;20030;-89
2023/05/25 09:03:19;;;;;;;37.05;23.50;;;;;;;;;;10353688;28;20104;-89
2023/05/25 09:08:21;;;;;;;34.20;23.77;;;;;;;;;;10340321;28;20034;-88
2023/05/25 09:13:22;;;;;;;36.22;23.85;;;;;;;;;;10344843;28;20485;-88
2023/05/25 09:18:23;;;;;;;33.85;23.13;;;;;;;;;;10360402;28;20037;-87
2023/05/25 09:23:24;;;;;;;34.60;22.42;;;;;;;;;;10360839;28;20040;-87
2023/05/25 09:28:27;;;;;;;26.23;18.15;;;;;;;;;;10361777;28;20033;-88
2023/05/25 09:33:28;;;;;;;31.95;21.55;;;;;;;;;;10360716;28;20054;-89
2023/05/25 09:38:29;;;;;;;29.25;19.55;;;;;;;;;;10360196;28;20029;-87
2023/05/25 09:43:33;;;;;;;27.08;17.10;;;;;;;;;;10360321;28;20032;-86
2023/05/25 09:48:44;;;;;;;26.83;16.90;;;;;;;;;;10346053;28;20034;-87
2023/05/25 09:53:47;;;;;;;27.58;17.23;;;;;;;;;;10359259;28;20034;-86
2023/05/25 09:58:54;;;;;;;26.98;18.88;;;;;;;;;;10360305;28;20033;-87
2023/05/25 10:03:55;;;;;;;23.83;17.25;;;;;;;;;;10359360;28;20046;-88
2023/05/25 10:08:57;;;;;;;25.80;17.88;;;;;;;;;;10358462;28;20511;-87
2023/05/25 10:14:02;;;;;;;29.88;21.63;;;;;;;;;;10360258;28;20026;-86
2023/05/25 10:19:09;;;;;;;26.70;20.67;;;;;;;;;;10359478;28;20028;-85
2023/05/25 10:24:20;;;;;;;32.92;21.95;;;;;;;;;;10359305;28;20069;-87
2023/05/25 10:29:23;;;;;;;33.95;23.52;;;;;;;;;;10358243;28;20114;-88
2023/05/25 10:34:25;;;;;;;31.02;21.83;;;;;;;;;;10357864;28;20037;-88
2023/05/25 10:39:28;;;;;;;29.20;20.45;;;;;;;;;;10357807;28;20025;-89
2023/05/25 10:44:32;;;;;;;31.38;22.27;;;;;;;;;;10357466;28;20026;-89
2023/05/25 10:49:35;;;;;;;28.52;20.25;;;;;;;;;;10357516;28;20116;-89
2023/05/25 10:54:38;;;;;;;28.90;19.13;;;;;;;;;;10495130;28;20030;-92
2023/05/25 10:59:44;;;;;;;28.85;21.15;;;;;;;;;;10358768;28;20026;-88
2023/05/25 11:04:46;;;;;;;26.38;19.35;;;;;;;;;;10357400;28;20385;-88
2023/05/25 11:09:57;;;;;;;26.52;19.38;;;;;;;;;;10425976;28;20032;-87
2023/05/25 11:15:19;;;;;;;26.80;20.20;;;;;;;;;;10425113;28;20763;-86
2023/05/25 11:20:23;;;;;;;29.27;20.15;;;;;;;;;;10357502;28;20111;-87
2023/05/25 11:25:34;;;;;;;25.63;19.88;;;;;;;;;;10356437;28;20449;-88
2023/05/25 11:30:36;;;;;;;28.63;19.52;;;;;;;;;;10355207;28;20062;-88
2023/05/25 11:35:37;;;;;;;24.17;18.10;;;;;;;;;;10355284;28;20543;-88
2023/05/25 11:40:40;;;;;;;21.02;17.42;;;;;;;;;;10356155;28;20061;-90
2023/05/25 11:45:40;;;;;;;23.17;17.75;;;;;;;;;;10355771;28;20037;-89
2023/05/25 11:50:41;;;;;;;22.50;17.05;;;;;;;;;;10355253;28;20752;-88
2023/05/25 11:55:48;;;;;;;23.42;18.55;;;;;;;;;;10358222;28;20030;-89
2023/05/25 12:00:52;;;;;;;20.33;14.75;;;;;;;;;;10355427;28;20030;-88
2023/05/25 12:05:53;;;;;;;17.15;14.52;;;;;;;;;;10345404;28;20034;-88
2023/05/25 12:10:54;;;;;;;19.08;16.45;;;;;;;;;;10356067;28;20029;-89
2023/05/25 12:15:59;;;;;;;21.42;15.18;;;;;;;;;;10341378;28;20085;-89
2023/05/25 12:21:00;;;;;;;18.48;15.50;;;;;;;;;;10355621;28;20037;-89
2023/05/25 12:26:11;;;;;;;17.73;15.27;;;;;;;;;;10375414;28;20032;-87
2023/05/25 12:31:21;;;;;;;19.55;15.93;;;;;;;;;;10335819;28;20066;-86
2023/05/25 12:36:42;;;;;;;19.13;16.05;;;;;;;;;;10362654;28;20124;-88
2023/05/25 12:41:50;;;;;;;17.60;14.25;;;;;;;;;;10367854;28;20046;-87
2023/05/25 12:46:52;;;;;;;19.52;16.08;;;;;;;;;;10355484;28;20033;-88
2023/05/25 12:51:54;;;;;;;21.10;17.20;;;;;;;;;;10366570;28;20049;-88
2023/05/25 12:56:56;;;;;;;23.67;17.55;;;;;;;;;;10371561;28;20072;-90
2023/05/25 13:02:01;;;;;;;25.17;17.48;;;;;;;;;;10361327;28;20033;-88
2023/05/25 13:07:02;;;;;;;22.27;17.00;;;;;;;;;;10374872;28;20416;-89
2023/05/25 13:12:04;;;;;;;21.80;17.23;;;;;;;;;;10359283;28;20034;-88
2023/05/25 13:17:05;;;;;;;24.80;17.95;;;;;;;;;;10355503;28;20122;-88
2023/05/25 13:22:06;;;;;;;22.98;16.98;;;;;;;;;;10364938;28;20144;-87
2023/05/25 13:27:07;;;;;;;21.90;15.68;;;;;;;;;;10359745;28;20703;-89
2023/05/25 13:32:12;;;;;;;21.98;15.60;;;;;;;;;;10353716;28;20066;-85
2023/05/25 13:37:14;;;;;;;24.40;16.15;;;;;;;;;;10354615;28;20064;-85
2023/05/25 13:42:15;;;;;;;23.25;16.27;;;;;;;;;;10348708;28;20022;-86
2023/05/25 13:47:16;;;;;;;21.88;16.23;;;;;;;;;;10357972;28;20030;-85
2023/05/25 13:52:17;;;;;;;25.40;16.05;;;;;;;;;;10364346;28;20121;-85
2023/05/25 13:57:18;;;;;;;19.63;15.25;;;;;;;;;;10410792;28;20034;-86
2023/05/25 14:02:21;;;;;;;24.23;15.38;;;;;;;;;;10365778;28;20029;-80
2023/05/25 14:07:22;;;;;;;21.38;14.70;;;;;;;;;;10362715;28;20055;-80
2023/05/25 14:12:23;;;;;;;19.30;14.00;;;;;;;;;;10364655;28;20030;-82
2023/05/25 14:17:26;;;;;;;21.13;14.52;;;;;;;;;;10361014;28;20052;-79
2023/05/25 14:22:27;;;;;;;19.35;13.95;;;;;;;;;;10360675;28;20045;-80
2023/05/25 14:27:30;;;;;;;20.30;15.10;;;;;;;;;;10359722;28;20541;-78
2023/05/25 14:32:31;;;;;;;19.95;14.35;;;;;;;;;;10360722;28;20038;-81
2023/05/25 14:37:34;;;;;;;20.58;14.88;;;;;;;;;;10359657;28;20042;-78
2023/05/25 14:42:36;;;;;;;21.02;14.45;;;;;;;;;;10359114;28;20038;-77
2023/05/25 14:47:42;;;;;;;20.00;14.05;;;;;;;;;;10362344;28;20041;-79
2023/05/25 14:52:43;;;;;;;22.63;14.85;;;;;;;;;;10358845;28;20060;-79
2023/05/25 14:57:46;;;;;;;22.85;14.98;;;;;;;;;;10368146;28;20132;-81
2023/05/25 15:02:46;;;;;;;19.33;13.15;;;;;;;;;;10359144;28;20061;-81
2023/05/25 15:07:47;;;;;;;21.00;13.82;;;;;;;;;;10351445;28;20030;-78
2023/05/25 15:12:48;;;;;;;16.27;12.73;;;;;;;;;;10361150;28;20060;-78
2023/05/25 15:17:49;;;;;;;19.10;14.60;;;;;;;;;;10351693;28;20045;-78
2023/05/25 15:22:52;;;;;;;17.80;13.60;;;;;;;;;;10356890;28;20396;-79
2023/05/25 15:27:53;;;;;;;19.92;13.35;;;;;;;;;;10361641;28;20148;-79
2023/05/25 15:32:54;;;;;;;16.38;13.07;;;;;;;;;;10411645;28;20054;-78
2023/05/25 15:37:55;;;;;;;17.98;12.80;;;;;;;;;;10381624;28;20106;-85
2023/05/25 15:42:56;;;;;;;24.17;15.63;;;;;;;;;;10357049;28;20036;-81
2023/05/25 15:47:57;;;;;;;18.67;12.88;;;;;;;;;;10363904;28;20434;-80
2023/05/25 15:52:58;;;;;;;19.08;13.90;;;;;;;;;;10357235;28;20034;-80
2023/05/25 15:57:59;;;;;;;18.63;12.10;;;;;;;;;;10355071;28;20052;-79
2023/05/25 16:03:02;;;;;;;18.75;13.10;;;;;;;;;;10348063;28;20081;-79
2023/05/25 16:08:05;;;;;;;14.93;11.70;;;;;;;;;;10359421;28;20049;-82
2023/05/25 16:13:06;;;;;;;18.50;12.98;;;;;;;;;;10361941;28;20037;-79
2023/05/25 16:18:09;;;;;;;19.33;12.85;;;;;;;;;;10344517;28;20037;-83
2023/05/25 16:23:10;;;;;;;17.95;12.68;;;;;;;;;;10356433;28;20037;-80
2023/05/25 16:28:10;;;;;;;16.38;12.10;;;;;;;;;;10355333;28;20073;-80
2023/05/25 16:33:12;;;;;;;18.92;13.60;;;;;;;;;;10360319;28;20613;-81
2023/05/25 16:38:14;;;;;;;19.10;13.57;;;;;;;;;;10356127;28;20042;-80
2023/05/25 16:43:21;;;;;;;20.52;14.35;;;;;;;;;;10358040;28;20038;-80
2023/05/25 16:48:24;;;;;;;20.08;14.07;;;;;;;;;;10356429;28;20034;-80
2023/05/25 16:53:25;;;;;;;24.05;16.05;;;;;;;;;;10369597;28;20034;-80
2023/05/25 16:58:32;;;;;;;24.95;16.05;;;;;;;;;;10373968;28;20534;-83
2023/05/25 17:03:33;;;;;;;30.95;19.20;;;;;;;;;;10363877;28;20033;-80
2023/05/25 17:08:35;;;;;;;25.77;16.65;;;;;;;;;;10348970;28;20157;-80
2023/05/25 17:13:40;;;;;;;29.20;18.45;;;;;;;;;;10355106;28;20083;-82
2023/05/25 17:18:41;;;;;;;23.98;15.90;;;;;;;;;;10355697;28;20034;-80
2023/05/25 17:23:44;;;;;;;24.20;16.85;;;;;;;;;;10344356;28;20053;-82
2023/05/25 17:28:46;;;;;;;25.20;16.13;;;;;;;;;;10355770;28;20057;-81
2023/05/25 17:33:49;;;;;;;27.58;17.85;;;;;;;;;;10357206;28;20042;-81
2023/05/25 17:38:52;;;;;;;24.92;17.00;;;;;;;;;;10361181;28;20117;-82
2023/05/25 17:43:55;;;;;;;25.92;17.48;;;;;;;;;;10361665;28;20037;-84
2023/05/25 17:48:56;;;;;;;26.02;17.00;;;;;;;;;;10364325;28;20117;-82
2023/05/25 17:53:57;;;;;;;29.40;18.25;;;;;;;;;;10366274;28;20081;-81
2023/05/25 17:59:01;;;;;;;26.52;17.98;;;;;;;;;;10373424;28;20622;-82
2023/05/25 18:04:02;;;;;;;24.40;17.05;;;;;;;;;;10360114;28;20045;-79
2023/05/25 18:09:03;;;;;;;23.13;15.05;;;;;;;;;;10348056;28;20450;-79
2023/05/25 18:14:04;;;;;;;20.83;14.25;;;;;;;;;;10359935;28;20065;-79
2023/05/25 18:19:05;;;;;;;27.08;17.98;;;;;;;;;;10359285;28;20124;-83
2023/05/25 18:24:07;;;;;;;28.20;19.33;;;;;;;;;;10369998;28;20026;-80
2023/05/25 18:29:08;;;;;;;29.67;20.15;;;;;;;;;;10360608;28;20750;-82
2023/05/25 18:34:09;;;;;;;27.30;18.00;;;;;;;;;;10359545;28;20049;-77
2023/05/25 18:39:14;;;;;;;26.65;18.60;;;;;;;;;;10364923;28;20120;-82
2023/05/25 18:44:15;;;;;;;29.17;18.57;;;;;;;;;;10358704;28;20041;-81
2023/05/25 18:49:16;;;;;;;36.67;21.30;;;;;;;;;;10345847;28;20033;-82
2023/05/25 18:54:17;;;;;;;38.88;24.85;;;;;;;;;;10359887;28;20030;-83
2023/05/25 18:59:20;;;;;;;32.45;22.02;;;;;;;;;;10357854;28;20041;-78
2023/05/25 19:04:25;;;;;;;37.03;22.50;;;;;;;;;;10345955;28;20029;-79
2023/05/25 19:09:27;;;;;;;34.20;23.02;;;;;;;;;;10370661;28;20038;-79
2023/05/25 19:14:28;;;;;;;36.08;25.20;;;;;;;;;;10414544;28;20130;-82
2023/05/25 19:19:29;;;;;;;37.45;25.90;;;;;;;;;;10359452;28;20384;-79
2023/05/25 19:24:32;;;;;;;35.28;24.55;;;;;;;;;;10367245;28;20068;-79
2023/05/25 19:29:37;;;;;;;52.28;31.90;;;;;;;;;;10357399;28;20060;-79
2023/05/25 19:34:43;;;;;;;49.97;33.10;;;;;;;;;;10365454;28;20064;-79
2023/05/25 19:39:44;;;;;;;55.78;35.38;;;;;;;;;;10359114;28;20047;-79
2023/05/25 19:44:45;;;;;;;66.28;40.97;;;;;;;;;;10357156;28;20038;-79
2023/05/25 19:49:48;;;;;;;64.28;43.45;;;;;;;;;;10363035;28;20069;-79
2023/05/25 19:54:51;;;;;;;66.25;43.63;;;;;;;;;;10365659;28;20061;-79
2023/05/25 19:59:53;;;;;;;54.95;33.85;;;;;;;;;;10412564;28;20049;-80
2023/05/25 20:04:54;;;;;;;50.75;33.50;;;;;;;;;;10360463;28;20060;-80
2023/05/25 20:09:55;;;;;;;50.40;32.10;;;;;;;;;;10363857;28;20091;-78
2023/05/25 20:14:55;;;;;;;45.92;27.50;;;;;;;;;;10424952;28;20109;-80
2023/05/25 20:19:58;;;;;;;48.35;30.58;;;;;;;;;;10362476;28;20610;-81
2023/05/25 20:25:01;;;;;;;44.88;27.15;;;;;;;;;;10355820;28;20038;-78
2023/05/25 20:30:02;;;;;;;42.17;26.15;;;;;;;;;;10355228;28;20062;-84
2023/05/25 20:35:03;;;;;;;43.75;28.75;;;;;;;;;;10345685;28;20486;-82
2023/05/25 20:40:07;;;;;;;36.03;24.95;;;;;;;;;;10419139;28;20041;-79
2023/05/25 20:45:08;;;;;;;45.83;29.25;;;;;;;;;;10355516;28;20049;-79
2023/05/25 20:50:09;;;;;;;48.38;30.90;;;;;;;;;;10360892;28;20120;-79
2023/05/25 20:55:14;;;;;;;44.65;29.60;;;;;;;;;;10355650;28;20030;-79
2023/05/25 21:00:15;;;;;;;52.63;31.70;;;;;;;;;;10355086;28;20053;-80
2023/05/25 21:05:19;;;;;;;43.13;29.00;;;;;;;;;;10355438;28;20034;-79
2023/05/25 21:10:20;;;;;;;44.45;27.65;;;;;;;;;;10360124;28;20503;-79
2023/05/25 21:15:21;;;;;;;49.60;32.20;;;;;;;;;;10371522;28;20033;-79
2023/05/25 21:20:25;;;;;;;47.63;30.73;;;;;;;;;;10370623;28;20053;-83
2023/05/25 21:25:26;;;;;;;52.10;32.55;;;;;;;;;;10362458;28;20078;-79
2023/05/25 21:30:28;;;;;;;49.33;33.78;;;;;;;;;;10366935;28;20084;-80
2023/05/25 21:35:29;;;;;;;45.15;29.52;;;;;;;;;;10363214;28;20038;-82
2023/05/25 21:40:30;;;;;;;46.22;30.55;;;;;;;;;;10360584;28;20030;-80
2023/05/25 21:45:33;;;;;;;47.47;29.35;;;;;;;;;;10354264;28;20115;-83
2023/05/25 21:50:35;;;;;;;46.08;31.60;;;;;;;;;;10365832;28;20545;-80
2023/05/25 21:55:36;;;;;;;50.67;32.80;;;;;;;;;;10373046;28;20115;-79
2023/05/25 22:00:37;;;;;;;48.20;30.48;;;;;;;;;;10360451;28;20129;-79
2023/05/25 22:05:38;;;;;;;45.50;31.38;;;;;;;;;;10371925;28;20519;-79
2023/05/25 22:10:39;;;;;;;43.65;29.55;;;;;;;;;;10361707;28;20117;-81
2023/05/25 22:15:41;;;;;;;45.35;28.27;;;;;;;;;;10359827;28;20555;-84
2023/05/25 22:20:42;;;;;;;40.33;26.88;;;;;;;;;;10360989;28;20087;-79
2023/05/25 22:25:45;;;;;;;47.58;31.08;;;;;;;;;;10370090;28;20732;-79
2023/05/25 22:30:46;;;;;;;44.17;29.38;;;;;;;;;;10359275;28;20069;-79
2023/05/25 22:35:47;;;;;;;42.42;29.00;;;;;;;;;;10371263;28;20513;-79
2023/05/25 22:40:48;;;;;;;43.35;28.05;;;;;;;;;;10359830;28;20036;-78
2023/05/25 22:45:52;;;;;;;45.03;29.50;;;;;;;;;;10357825;28;20053;-80
2023/05/25 22:50:57;;;;;;;40.58;27.80;;;;;;;;;;10367107;28;20036;-79
2023/05/25 22:55:58;;;;;;;46.53;28.92;;;;;;;;;;10359243;28;20131;-83
2023/05/25 23:01:01;;;;;;;42.45;29.10;;;;;;;;;;10358323;28;20106;-81
2023/05/25 23:06:02;;;;;;;47.08;30.75;;;;;;;;;;10368560;28;20488;-84
2023/05/25 23:11:05;;;;;;;48.00;32.92;;;;;;;;;;10357982;28;20114;-80
2023/05/25 23:16:06;;;;;;;50.55;32.67;;;;;;;;;;10357796;28;20030;-80
2023/05/25 23:21:08;;;;;;;46.60;30.95;;;;;;;;;;10362384;28;20091;-78
2023/05/25 23:26:09;;;;;;;47.05;30.77;;;;;;;;;;10358167;28;20041;-79
2023/05/25 23:31:10;;;;;;;41.78;27.30;;;;;;;;;;10356077;28;20417;-81
2023/05/25 23:36:15;;;;;;;45.65;28.00;;;;;;;;;;10365392;28;20048;-80
2023/05/25 23:41:21;;;;;;;47.38;31.92;;;;;;;;;;10356814;28;20026;-80
2023/05/25 23:46:30;;;;;;;45.13;28.88;;;;;;;;;;10362444;28;20028;-81
2023/05/25 23:51:31;;;;;;;43.30;27.58;;;;;;;;;;10360375;28;20037;-79
2023/05/25 23:56:32;;;;;;;40.65;27.35;;;;;;;;;;10368338;28;20516;-83
